sensor_id;sensor_type;location;lat;lon;timestamp;pressure;altitude;pressure_sealevel;temperature;humidity
6899;BME280;3488;42.616;23.350;2023-05-25T00:00:33;63565.16;;;15.14;97.02
6899;BME280;3488;42.616;23.350;2023-05-25T00:03:00;63560.50;;;15.12;96.68
6899;BME280;3488;42.616;23.350;2023-05-25T00:05:28;63554.84;;;15.09;96.28
6899;BME280;3488;42.616;23.350;2023-05-25T00:07:55;63560.50;;;15.12;97.09
6899;BME280;3488;42.616;23.350;2023-05-25T00:10:23;63556.91;;;15.11;97.01
6899;BME280;3488;42.616;23.350;2023-05-25T00:12:50;63561.00;;;15.10;97.27
6899;BME280;3488;42.616;23.350;2023-05-25T00:15:18;63571.34;;;15.18;97.23
6899;BME280;3488;42.616;23.350;2023-05-25T00:17:45;63567.19;;;15.14;98.21
6899;BME280;3488;42.616;23.350;2023-05-25T00:20:13;63556.84;;;15.06;98.62
6899;BME280;3488;42.616;23.350;2023-05-25T00:22:42;63559.00;;;15.13;98.88
6899;BME280;3488;42.616;23.350;2023-05-25T00:25:10;63564.06;;;15.08;100.00
6899;BME280;3488;42.616;23.350;2023-05-25T00:27:38;63553.22;;;15.05;100.00
6899;BME280;3488;42.616;23.350;2023-05-25T00:30:06;63552.69;;;15.02;100.00
6899;BME280;3488;42.616;23.350;2023-05-25T00:32:34;63551.66;;;15.01;100.00
6899;BME280;3488;42.616;23.350;2023-05-25T00:35:01;63552.16;;;15.01;100.00
6899;BME280;3488;42.616;23.350;2023-05-25T00:37:28;63545.44;;;14.97;100.00
6899;BME280;3488;42.616;23.350;2023-05-25T00:39:55;63541.78;;;14.91;100.00
6899;BME280;3488;42.616;23.350;2023-05-25T00:42:23;63536.13;;;14.91;100.00
6899;BME280;3488;42.616;23.350;2023-05-25T00:44:52;63540.75;;;14.90;100.00
6899;BME280;3488;42.616;23.350;2023-05-25T00:47:19;63528.88;;;14.84;100.00
6899;BME280;3488;42.616;23.350;2023-05-25T00:49:49;63525.72;;;14.81;100.00
6899;BME280;3488;42.616;23.350;2023-05-25T00:52:16;63527.25;;;14.80;100.00
6899;BME280;3488;42.616;23.350;2023-05-25T00:54:46;63523.56;;;14.71;100.00
6899;BME280;3488;42.616;23.350;2023-05-25T00:57:19;63502.88;;;14.59;100.00
6899;BME280;3488;42.616;23.350;2023-05-25T00:59:50;63506.00;;;14.62;100.00
6899;BME280;3488;42.616;23.350;2023-05-25T01:02:21;63487.84;;;14.44;100.00
6899;BME280;3488;42.616;23.350;2023-05-25T01:04:52;63488.31;;;14.42;100.00
6899;BME280;3488;42.616;23.350;2023-05-25T01:07:21;63494.47;;;14.43;100.00
6899;BME280;3488;42.616;23.350;2023-05-25T01:09:53;63487.19;;;14.36;100.00
6899;BME280;3488;42.616;23.350;2023-05-25T01:12:23;63469.03;;;14.21;100.00
6899;BME280;3488;42.616;23.350;2023-05-25T01:14:53;63470.13;;;14.25;100.00
6899;BME280;3488;42.616;23.350;2023-05-25T01:17:21;63466.97;;;14.19;100.00
6899;BME280;3488;42.616;23.350;2023-05-25T01:19:50;63459.75;;;14.17;100.00
6899;BME280;3488;42.616;23.350;2023-05-25T01:22:25;63449.84;;;14.03;100.00
6899;BME280;3488;42.616;23.350;2023-05-25T01:24:55;63446.69;;;13.97;100.00
6899;BME280;3488;42.616;23.350;2023-05-25T01:27:32;63433.81;;;13.92;100.00
6899;BME280;3488;42.616;23.350;2023-05-25T01:30:05;63442.56;;;13.96;100.00
6899;BME280;3488;42.616;23.350;2023-05-25T01:32:36;63442.56;;;13.96;100.00
6899;BME280;3488;42.616;23.350;2023-05-25T01:35:05;63450.34;;;14.03;100.00
6899;BME280;3488;42.616;23.350;2023-05-25T01:37:36;63441.09;;;13.99;100.00
6899;BME280;3488;42.616;23.350;2023-05-25T01:40:04;63448.78;;;13.99;100.00
6899;BME280;3488;42.616;23.350;2023-05-25T01:42:31;63451.34;;;14.02;100.00
6899;BME280;3488;42.616;23.350;2023-05-25T01:44:59;63435.84;;;13.91;100.00
6899;BME280;3488;42.616;23.350;2023-05-25T01:47:30;63443.69;;;14.02;100.00
6899;BME280;3488;42.616;23.350;2023-05-25T01:50:02;63445.16;;;13.98;100.00
6899;BME280;3488;42.616;23.350;2023-05-25T01:52:37;63449.88;;;14.05;100.00
6899;BME280;3488;42.616;23.350;2023-05-25T01:55:11;63449.84;;;14.03;100.00
6899;BME280;3488;42.616;23.350;2023-05-25T01:57:42;63448.25;;;13.99;100.00
6899;BME280;3488;42.616;23.350;2023-05-25T02:00:11;63445.09;;;13.93;100.00
6899;BME280;3488;42.616;23.350;2023-05-25T02:02:40;63430.72;;;13.89;100.00
6899;BME280;3488;42.616;23.350;2023-05-25T02:05:08;63433.78;;;13.89;100.00
6899;BME280;3488;42.616;23.350;2023-05-25T02:07:38;63441.03;;;13.94;100.00
6899;BME280;3488;42.616;23.350;2023-05-25T02:10:06;63433.81;;;13.92;100.00
6899;BME280;3488;42.616;23.350;2023-05-25T02:12:34;63437.88;;;13.91;100.00
6899;BME280;3488;42.616;23.350;2023-05-25T02:15:01;63428.56;;;13.82;100.00
6899;BME280;3488;42.616;23.350;2023-05-25T02:17:28;63417.22;;;13.76;100.00
6899;BME280;3488;42.616;23.350;2023-05-25T02:19:55;63415.06;;;13.69;100.00
6899;BME280;3488;42.616;23.350;2023-05-25T02:22:22;63418.22;;;13.74;100.00
6899;BME280;3488;42.616;23.350;2023-05-25T02:24:51;63417.69;;;13.74;100.00
6899;BME280;3488;42.616;23.350;2023-05-25T02:27:18;63416.66;;;13.73;100.00
6899;BME280;3488;42.616;23.350;2023-05-25T02:29:45;63419.22;;;13.73;100.00
6899;BME280;3488;42.616;23.350;2023-05-25T02:32:12;63414.06;;;13.70;100.00
6899;BME280;3488;42.616;23.350;2023-05-25T02:34:40;63435.31;;;13.88;100.00
6899;BME280;3488;42.616;23.350;2023-05-25T02:37:07;63433.78;;;13.89;100.00
6899;BME280;3488;42.616;23.350;2023-05-25T02:39:34;63434.34;;;13.93;100.00
6899;BME280;3488;42.616;23.350;2023-05-25T02:42:03;63440.00;;;13.96;100.00
6899;BME280;3488;42.616;23.350;2023-05-25T02:44:30;63435.91;;;13.94;100.00
6899;BME280;3488;42.616;23.350;2023-05-25T02:46:57;63430.63;;;13.84;100.00
6899;BME280;3488;42.616;23.350;2023-05-25T02:49:24;63443.13;;;13.99;100.00
6899;BME280;3488;42.616;23.350;2023-05-25T02:51:51;63449.28;;;14.00;100.00
6899;BME280;3488;42.616;23.350;2023-05-25T02:54:18;63444.72;;;14.03;100.00
6899;BME280;3488;42.616;23.350;2023-05-25T02:56:46;63449.88;;;14.05;100.00
6899;BME280;3488;42.616;23.350;2023-05-25T02:59:14;63446.75;;;14.02;100.00
6899;BME280;3488;42.616;23.350;2023-05-25T03:01:41;63456.03;;;14.06;100.00
6899;BME280;3488;42.616;23.350;2023-05-25T03:04:08;63444.16;;;14.00;100.00
6899;BME280;3488;42.616;23.350;2023-05-25T03:06:35;63452.44;;;14.05;100.00
6899;BME280;3488;42.616;23.350;2023-05-25T03:09:02;63446.81;;;14.05;100.00
6899;BME280;3488;42.616;23.350;2023-05-25T03:11:31;63449.28;;;14.00;100.00
6899;BME280;3488;42.616;23.350;2023-05-25T03:13:58;63451.41;;;14.04;100.00
6899;BME280;3488;42.616;23.350;2023-05-25T03:16:27;63440.03;;;13.98;100.00
6899;BME280;3488;42.616;23.350;2023-05-25T03:18:54;63448.31;;;14.04;100.00
6899;BME280;3488;42.616;23.350;2023-05-25T03:21:21;63456.13;;;14.14;100.00
6899;BME280;3488;42.616;23.350;2023-05-25T03:23:48;63462.31;;;14.17;100.00
6899;BME280;3488;42.616;23.350;2023-05-25T03:26:15;63462.91;;;14.20;100.00
6899;BME280;3488;42.616;23.350;2023-05-25T03:28:43;63466.50;;;14.21;100.00
6899;BME280;3488;42.616;23.350;2023-05-25T03:31:10;63472.13;;;14.22;100.00
6899;BME280;3488;42.616;23.350;2023-05-25T03:33:39;63473.72;;;14.26;100.00
6899;BME280;3488;42.616;23.350;2023-05-25T03:36:07;63472.16;;;14.24;100.00
6899;BME280;3488;42.616;23.350;2023-05-25T03:38:35;63477.34;;;14.27;100.00
6899;BME280;3488;42.616;23.350;2023-05-25T03:41:03;63481.47;;;14.28;100.00
6899;BME280;3488;42.616;23.350;2023-05-25T03:43:30;63488.72;;;14.35;100.00
6899;BME280;3488;42.616;23.350;2023-05-25T03:45:57;63474.84;;;14.32;100.00
6899;BME280;3488;42.616;23.350;2023-05-25T03:48:24;63495.06;;;14.49;100.00
6899;BME280;3488;42.616;23.350;2023-05-25T03:50:53;63504.38;;;14.55;100.00
6899;BME280;3488;42.616;23.350;2023-05-25T03:53:20;63500.25;;;14.54;100.00
6899;BME280;3488;42.616;23.350;2023-05-25T03:55:47;63507.47;;;14.58;100.00
6899;BME280;3488;42.616;23.350;2023-05-25T03:58:16;63530.94;;;14.86;100.00
6899;BME280;3488;42.616;23.350;2023-05-25T04:00:43;63537.59;;;14.85;100.00
6899;BME280;3488;42.616;23.350;2023-05-25T04:03:10;63542.31;;;14.94;100.00
6899;BME280;3488;42.616;23.350;2023-05-25T04:05:38;63568.78;;;15.15;100.00
6899;BME280;3488;42.616;23.350;2023-05-25T04:08:07;63583.34;;;15.32;100.00
6899;BME280;3488;42.616;23.350;2023-05-25T04:10:35;63590.16;;;15.41;100.00
6899;BME280;3488;42.616;23.350;2023-05-25T04:13:02;63615.03;;;15.60;100.00
6899;BME280;3488;42.616;23.350;2023-05-25T04:15:29;63625.50;;;15.75;100.00
6899;BME280;3488;42.616;23.350;2023-05-25T04:17:59;63642.13;;;15.91;100.00
6899;BME280;3488;42.616;23.350;2023-05-25T04:20:27;63650.44;;;15.99;100.00
6899;BME280;3488;42.616;23.350;2023-05-25T04:22:55;63669.69;;;16.17;100.00
6899;BME280;3488;42.616;23.350;2023-05-25T04:25:23;63693.59;;;16.38;100.00
6899;BME280;3488;42.616;23.350;2023-05-25T04:27:51;63707.16;;;16.54;100.00
6899;BME280;3488;42.616;23.350;2023-05-25T04:30:21;63740.91;;;16.81;100.00
6899;BME280;3488;42.616;23.350;2023-05-25T04:32:48;63752.97;;;17.00;100.00
6899;BME280;3488;42.616;23.350;2023-05-25T04:35:16;63764.91;;;17.09;100.00
6899;BME280;3488;42.616;23.350;2023-05-25T04:37:45;63754.47;;;16.97;100.00
6899;BME280;3488;42.616;23.350;2023-05-25T04:40:13;63744.59;;;16.87;100.00
6899;BME280;3488;42.616;23.350;2023-05-25T04:42:41;63735.72;;;16.76;100.00
6899;BME280;3488;42.616;23.350;2023-05-25T04:45:09;63738.88;;;16.84;100.00
6899;BME280;3488;42.616;23.350;2023-05-25T04:47:37;63729.06;;;16.77;99.57
6899;BME280;3488;42.616;23.350;2023-05-25T04:50:06;63736.75;;;16.77;100.00
6899;BME280;3488;42.616;23.350;2023-05-25T04:52:34;63725.41;;;16.74;100.00
6899;BME280;3488;42.616;23.350;2023-05-25T04:55:01;63731.59;;;16.75;100.00
6899;BME280;3488;42.616;23.350;2023-05-25T04:57:29;63754.56;;;17.04;100.00
6899;BME280;3488;42.616;23.350;2023-05-25T04:59:57;63771.72;;;17.18;99.66
6899;BME280;3488;42.616;23.350;2023-05-25T05:02:25;63793.50;;;17.34;99.04
6899;BME280;3488;42.616;23.350;2023-05-25T05:04:52;63793.00;;;17.37;98.61
6899;BME280;3488;42.616;23.350;2023-05-25T05:07:19;63800.88;;;17.47;99.99
6899;BME280;3488;42.616;23.350;2023-05-25T05:09:47;63807.56;;;17.48;98.29
6899;BME280;3488;42.616;23.350;2023-05-25T05:12:14;63810.22;;;17.53;97.56
6899;BME280;3488;42.616;23.350;2023-05-25T05:14:41;63811.78;;;17.55;96.50
6899;BME280;3488;42.616;23.350;2023-05-25T05:17:10;63813.28;;;17.51;100.00
6899;BME280;3488;42.616;23.350;2023-05-25T05:19:37;63833.06;;;17.70;100.00
6899;BME280;3488;42.616;23.350;2023-05-25T05:22:04;63842.47;;;17.82;100.00
6899;BME280;3488;42.616;23.350;2023-05-25T05:24:33;63860.22;;;18.01;98.96
6899;BME280;3488;42.616;23.350;2023-05-25T05:27:00;63852.34;;;17.91;95.66
6899;BME280;3488;42.616;23.350;2023-05-25T05:29:28;63853.94;;;17.93;94.93
6899;BME280;3488;42.616;23.350;2023-05-25T05:31:55;63860.22;;;18.01;94.84
6899;BME280;3488;42.616;23.350;2023-05-25T05:34:23;63862.28;;;18.01;95.08
6899;BME280;3488;42.616;23.350;2023-05-25T05:36:50;63849.75;;;17.89;93.88
6899;BME280;3488;42.616;23.350;2023-05-25T05:39:18;63866.91;;;18.00;94.17
6899;BME280;3488;42.616;23.350;2023-05-25T05:41:45;63859.66;;;17.98;94.34
6899;BME280;3488;42.616;23.350;2023-05-25T05:44:12;63846.63;;;17.83;98.52
6899;BME280;3488;42.616;23.350;2023-05-25T05:46:39;63818.56;;;17.64;98.24
6899;BME280;3488;42.616;23.350;2023-05-25T05:49:07;63833.63;;;17.76;98.99
6899;BME280;3488;42.616;23.350;2023-05-25T05:51:35;63811.25;;;17.54;99.50
6899;BME280;3488;42.616;23.350;2023-05-25T05:54:04;63799.75;;;17.41;100.00
6899;BME280;3488;42.616;23.350;2023-05-25T05:56:31;63807.13;;;17.53;98.73
6899;BME280;3488;42.616;23.350;2023-05-25T05:58:59;63807.63;;;17.51;97.77
6899;BME280;3488;42.616;23.350;2023-05-25T06:01:26;63834.69;;;17.77;96.60
6899;BME280;3488;42.616;23.350;2023-05-25T06:03:53;63840.94;;;17.83;94.28
6899;BME280;3488;42.616;23.350;2023-05-25T06:06:20;63870.09;;;18.08;93.72
6899;BME280;3488;42.616;23.350;2023-05-25T06:08:49;63852.34;;;17.89;94.14
6899;BME280;3488;42.616;23.350;2023-05-25T06:11:16;63817.00;;;17.62;96.76
6899;BME280;3488;42.616;23.350;2023-05-25T06:13:43;63845.59;;;17.85;96.61
6899;BME280;3488;42.616;23.350;2023-05-25T06:16:10;63870.09;;;18.11;95.24
6899;BME280;3488;42.616;23.350;2023-05-25T06:18:37;63906.03;;;18.40;93.33
6899;BME280;3488;42.616;23.350;2023-05-25T06:21:05;63914.94;;;18.54;91.19
6899;BME280;3488;42.616;23.350;2023-05-25T06:23:32;63913.91;;;18.53;90.82
6899;BME280;3488;42.616;23.350;2023-05-25T06:26:03;63927.44;;;18.66;93.00
6899;BME280;3488;42.616;23.350;2023-05-25T06:28:31;63937.34;;;18.76;89.66
6899;BME280;3488;42.616;23.350;2023-05-25T06:30:59;63947.25;;;18.85;87.86
6899;BME280;3488;42.616;23.350;2023-05-25T06:33:26;63964.97;;;19.02;86.85
6899;BME280;3488;42.616;23.350;2023-05-25T06:35:53;63952.97;;;18.91;81.85
6899;BME280;3488;42.616;23.350;2023-05-25T06:38:24;63948.31;;;18.89;82.77
6899;BME280;3488;42.616;23.350;2023-05-25T06:40:52;63938.34;;;18.74;84.50
6899;BME280;3488;42.616;23.350;2023-05-25T06:43:20;63959.22;;;18.97;84.42
6899;BME280;3488;42.616;23.350;2023-05-25T06:45:48;63961.34;;;19.01;86.34
6899;BME280;3488;42.616;23.350;2023-05-25T06:48:15;63970.16;;;19.05;82.70
6899;BME280;3488;42.616;23.350;2023-05-25T06:50:42;63966.50;;;19.01;83.58
6899;BME280;3488;42.616;23.350;2023-05-25T06:53:10;63965.44;;;19.00;83.35
6899;BME280;3488;42.616;23.350;2023-05-25T06:55:37;64009.81;;;19.43;77.76
6899;BME280;3488;42.616;23.350;2023-05-25T06:58:04;64007.22;;;19.43;78.26
6899;BME280;3488;42.616;23.350;2023-05-25T07:00:33;64016.09;;;19.51;78.76
6899;BME280;3488;42.616;23.350;2023-05-25T07:03:00;64009.81;;;19.43;79.78
6899;BME280;3488;42.616;23.350;2023-05-25T07:05:27;64010.84;;;19.44;77.36
6899;BME280;3488;42.616;23.350;2023-05-25T07:07:54;64021.25;;;19.54;78.16
6899;BME280;3488;42.616;23.350;2023-05-25T07:10:21;64005.66;;;19.44;77.24
6899;BME280;3488;42.616;23.350;2023-05-25T07:12:49;64028.56;;;19.61;78.32
6899;BME280;3488;42.616;23.350;2023-05-25T07:15:15;64037.47;;;19.72;76.06
6899;BME280;3488;42.616;23.350;2023-05-25T07:17:44;64091.16;;;20.19;75.85
6899;BME280;3488;42.616;23.350;2023-05-25T07:20:12;64073.97;;;20.07;74.59
6899;BME280;3488;42.616;23.350;2023-05-25T07:22:38;64082.81;;;20.13;74.80
6899;BME280;3488;42.616;23.350;2023-05-25T07:25:07;64044.25;;;19.81;76.76
6899;BME280;3488;42.616;23.350;2023-05-25T07:27:34;64036.41;;;19.71;79.53
6899;BME280;3488;42.616;23.350;2023-05-25T07:30:01;64051.00;;;19.85;80.72
6899;BME280;3488;42.616;23.350;2023-05-25T07:32:28;64111.06;;;20.45;78.88
6899;BME280;3488;42.616;23.350;2023-05-25T07:34:57;64168.47;;;20.98;75.41
6899;BME280;3488;42.616;23.350;2023-05-25T07:37:24;64146.53;;;20.80;76.00
6899;BME280;3488;42.616;23.350;2023-05-25T07:39:51;64140.28;;;20.76;75.99
6899;BME280;3488;42.616;23.350;2023-05-25T07:42:18;64126.13;;;20.52;77.45
6899;BME280;3488;42.616;23.350;2023-05-25T07:44:46;64171.53;;;20.96;74.83
6899;BME280;3488;42.616;23.350;2023-05-25T07:47:13;64135.56;;;20.66;75.54
6899;BME280;3488;42.616;23.350;2023-05-25T07:49:40;64059.38;;;19.96;77.40
6899;BME280;3488;42.616;23.350;2023-05-25T07:52:10;64020.19;;;19.50;81.04
6899;BME280;3488;42.616;23.350;2023-05-25T07:54:37;64004.06;;;19.37;82.58
6899;BME280;3488;42.616;23.350;2023-05-25T07:57:04;63982.16;;;19.19;86.56
6899;BME280;3488;42.616;23.350;2023-05-25T07:59:32;63984.22;;;19.18;86.59
6899;BME280;3488;42.616;23.350;2023-05-25T08:02:00;63993.63;;;19.27;83.17
6899;BME280;3488;42.616;23.350;2023-05-25T08:04:27;63985.78;;;19.20;85.01
6899;BME280;3488;42.616;23.350;2023-05-25T08:06:54;63974.31;;;19.09;85.99
6899;BME280;3488;42.616;23.350;2023-05-25T08:09:22;63942.03;;;18.80;88.56
6899;BME280;3488;42.616;23.350;2023-05-25T08:11:49;63933.13;;;18.67;89.98
6899;BME280;3488;42.616;23.350;2023-05-25T08:14:17;63933.66;;;18.70;91.90
6899;BME280;3488;42.616;23.350;2023-05-25T08:16:45;63934.72;;;18.73;92.91
6899;BME280;3488;42.616;23.350;2023-05-25T08:19:12;63932.13;;;18.71;93.62
6899;BME280;3488;42.616;23.350;2023-05-25T08:21:40;63946.16;;;18.82;92.23
6899;BME280;3488;42.616;23.350;2023-05-25T08:24:07;63931.59;;;18.70;92.16
6899;BME280;3488;42.616;23.350;2023-05-25T08:26:35;63778.47;;;17.25;100.00
6899;BME280;3488;42.616;23.350;2023-05-25T08:29:03;63600.56;;;15.51;100.00
6899;BME280;3488;42.616;23.350;2023-05-25T08:31:30;63486.19;;;14.38;100.00
6899;BME280;3488;42.616;23.350;2023-05-25T08:33:57;63475.84;;;14.30;100.00
6899;BME280;3488;42.616;23.350;2023-05-25T08:36:25;63476.88;;;14.29;100.00
6899;BME280;3488;42.616;23.350;2023-05-25T08:38:52;63468.09;;;14.25;100.00
6899;BME280;3488;42.616;23.350;2023-05-25T08:41:19;63464.94;;;14.20;100.00
6899;BME280;3488;42.616;23.350;2023-05-25T08:43:48;63477.97;;;14.35;100.00
6899;BME280;3488;42.616;23.350;2023-05-25T08:46:28;63486.75;;;14.41;100.00
6899;BME280;3488;42.616;23.350;2023-05-25T08:49:03;63494.53;;;14.48;100.00
6899;BME280;3488;42.616;23.350;2023-05-25T08:51:34;63507.53;;;14.61;100.00
6899;BME280;3488;42.616;23.350;2023-05-25T08:54:06;63514.28;;;14.67;100.00
6899;BME280;3488;42.616;23.350;2023-05-25T08:56:38;63514.31;;;14.70;100.00
6899;BME280;3488;42.616;23.350;2023-05-25T08:59:13;63532.41;;;14.82;100.00
6899;BME280;3488;42.616;23.350;2023-05-25T09:01:45;63536.06;;;14.86;100.00
6899;BME280;3488;42.616;23.350;2023-05-25T09:04:12;63542.84;;;14.95;100.00
6899;BME280;3488;42.616;23.350;2023-05-25T09:06:39;63558.34;;;15.05;100.00
6899;BME280;3488;42.616;23.350;2023-05-25T09:09:07;63560.47;;;15.10;100.00
6899;BME280;3488;42.616;23.350;2023-05-25T09:11:35;63558.94;;;15.11;100.00
6899;BME280;3488;42.616;23.350;2023-05-25T09:14:02;63565.22;;;15.19;100.00
6899;BME280;3488;42.616;23.350;2023-05-25T09:16:30;63563.72;;;15.23;100.00
6899;BME280;3488;42.616;23.350;2023-05-25T09:18:58;63585.97;;;15.37;100.00
6899;BME280;3488;42.616;23.350;2023-05-25T09:21:25;63594.25;;;15.40;100.00
6899;BME280;3488;42.616;23.350;2023-05-25T09:23:52;63591.72;;;15.42;100.00
6899;BME280;3488;42.616;23.350;2023-05-25T09:26:19;63599.00;;;15.49;100.00
6899;BME280;3488;42.616;23.350;2023-05-25T09:28:47;63603.66;;;15.54;100.00
6899;BME280;3488;42.616;23.350;2023-05-25T09:31:14;63599.53;;;15.52;100.00
6899;BME280;3488;42.616;23.350;2023-05-25T09:33:44;63609.41;;;15.62;100.00
6899;BME280;3488;42.616;23.350;2023-05-25T09:36:12;63631.22;;;15.80;100.00
6899;BME280;3488;42.616;23.350;2023-05-25T09:38:40;63661.34;;;16.07;100.00
6899;BME280;3488;42.616;23.350;2023-05-25T09:41:08;63674.41;;;16.25;100.00
6899;BME280;3488;42.616;23.350;2023-05-25T09:43:34;63699.31;;;16.44;100.00
6899;BME280;3488;42.616;23.350;2023-05-25T09:46:01;63683.19;;;16.28;100.00
6899;BME280;3488;42.616;23.350;2023-05-25T09:48:29;63676.44;;;16.24;100.00
6899;BME280;3488;42.616;23.350;2023-05-25T09:50:58;63684.25;;;16.32;100.00
6899;BME280;3488;42.616;23.350;2023-05-25T09:53:26;63705.06;;;16.49;100.00
6899;BME280;3488;42.616;23.350;2023-05-25T09:55:53;63725.91;;;16.72;100.00
6899;BME280;3488;42.616;23.350;2023-05-25T09:58:21;63699.84;;;16.44;100.00
6899;BME280;3488;42.616;23.350;2023-05-25T10:00:52;63701.38;;;16.46;100.00
6899;BME280;3488;42.616;23.350;2023-05-25T10:03:20;63683.78;;;16.34;100.00
6899;BME280;3488;42.616;23.350;2023-05-25T10:05:47;63674.31;;;16.17;100.00
6899;BME280;3488;42.616;23.350;2023-05-25T10:08:17;63702.97;;;16.47;100.00
6899;BME280;3488;42.616;23.350;2023-05-25T10:10:47;63754.03;;;17.01;100.00
6899;BME280;3488;42.616;23.350;2023-05-25T10:13:19;63764.38;;;17.09;100.00
6899;BME280;3488;42.616;23.350;2023-05-25T10:15:51;63773.25;;;17.17;100.00
6899;BME280;3488;42.616;23.350;2023-05-25T10:18:21;63811.81;;;17.57;100.00
6899;BME280;3488;42.616;23.350;2023-05-25T10:20:53;63868.59;;;18.12;100.00
6899;BME280;3488;42.616;23.350;2023-05-25T10:23:25;63930.50;;;18.64;100.00
6899;BME280;3488;42.616;23.350;2023-05-25T10:25:57;63954.03;;;18.94;100.00
6899;BME280;3488;42.616;23.350;2023-05-25T10:28:27;63989.97;;;19.24;100.00
6899;BME280;3488;42.616;23.350;2023-05-25T10:30:56;63997.31;;;19.33;100.00
6899;BME280;3488;42.616;23.350;2023-05-25T10:33:24;64031.19;;;19.66;100.00
6899;BME280;3488;42.616;23.350;2023-05-25T10:35:53;64059.91;;;19.96;100.00
6899;BME280;3488;42.616;23.350;2023-05-25T10:38:21;64067.13;;;19.96;100.00
6899;BME280;3488;42.616;23.350;2023-05-25T10:40:50;64002.53;;;19.41;100.00
6899;BME280;3488;42.616;23.350;2023-05-25T10:43:18;63945.69;;;18.84;100.00
6899;BME280;3488;42.616;23.350;2023-05-25T10:45:45;63907.09;;;18.44;100.00
6899;BME280;3488;42.616;23.350;2023-05-25T10:48:13;63934.69;;;18.71;100.00
6899;BME280;3488;42.616;23.350;2023-05-25T10:50:40;63948.25;;;18.84;100.00
6899;BME280;3488;42.616;23.350;2023-05-25T10:53:11;63935.31;;;18.79;100.00
6899;BME280;3488;42.616;23.350;2023-05-25T10:55:43;63942.56;;;18.81;100.00
6899;BME280;3488;42.616;23.350;2023-05-25T10:58:18;63930.00;;;18.64;100.00
6899;BME280;3488;42.616;23.350;2023-05-25T11:00:56;63980.63;;;19.20;100.00
6899;BME280;3488;42.616;23.350;2023-05-25T11:03:47;64021.31;;;19.59;100.00
6899;BME280;3488;42.616;23.350;2023-05-25T11:06:15;64048.91;;;19.81;100.00
6899;BME280;3488;42.616;23.350;2023-05-25T11:08:50;64031.72;;;19.69;100.00
6899;BME280;3488;42.616;23.350;2023-05-25T11:11:17;64040.03;;;19.72;100.00
6899;BME280;3488;42.616;23.350;2023-05-25T11:13:46;64048.41;;;19.83;100.00
6899;BME280;3488;42.616;23.350;2023-05-25T11:16:20;64057.28;;;19.91;100.00
6899;BME280;3488;42.616;23.350;2023-05-25T11:18:50;63998.31;;;19.32;100.00
6899;BME280;3488;42.616;23.350;2023-05-25T11:24:11;63933.13;;;18.67;100.00
6899;BME280;3488;42.616;23.350;2023-05-25T11:26:52;63940.50;;;18.84;100.00
6899;BME280;3488;42.616;23.350;2023-05-25T11:29:21;63933.13;;;18.69;100.00
6899;BME280;3488;42.616;23.350;2023-05-25T11:31:54;63903.97;;;18.43;100.00
6899;BME280;3488;42.616;23.350;2023-05-25T11:34:22;63910.75;;;18.50;100.00
6899;BME280;3488;42.616;23.350;2023-05-25T11:36:53;63890.94;;;18.31;100.00
6899;BME280;3488;42.616;23.350;2023-05-25T11:39:20;63878.47;;;18.21;100.00
6899;BME280;3488;42.616;23.350;2023-05-25T11:41:50;63862.31;;;18.06;100.00
6899;BME280;3488;42.616;23.350;2023-05-25T11:44:27;63866.94;;;18.05;100.00
6899;BME280;3488;42.616;23.350;2023-05-25T11:46:54;63878.38;;;18.14;100.00
6899;BME280;3488;42.616;23.350;2023-05-25T11:49:23;63899.25;;;18.36;100.00
6899;BME280;3488;42.616;23.350;2023-05-25T11:51:52;63919.59;;;18.59;100.00
6899;BME280;3488;42.616;23.350;2023-05-25T11:54:23;63938.31;;;18.72;100.00
6899;BME280;3488;42.616;23.350;2023-05-25T11:56:50;63948.31;;;18.89;100.00
6899;BME280;3488;42.616;23.350;2023-05-25T11:59:17;63922.19;;;18.59;100.00
6899;BME280;3488;42.616;23.350;2023-05-25T12:01:56;63890.44;;;18.33;100.00
6899;BME280;3488;42.616;23.350;2023-05-25T12:04:23;63914.44;;;18.56;100.00
6899;BME280;3488;42.616;23.350;2023-05-25T12:06:50;63949.81;;;18.85;100.00
6899;BME280;3488;42.616;23.350;2023-05-25T12:09:21;63967.03;;;19.04;100.00
6899;BME280;3488;42.616;23.350;2023-05-25T12:11:48;63986.28;;;19.18;100.00
6899;BME280;3488;42.616;23.350;2023-05-25T12:14:15;63962.34;;;19.00;100.00
6899;BME280;3488;42.616;23.350;2023-05-25T12:16:43;63940.44;;;18.76;100.00
6899;BME280;3488;42.616;23.350;2023-05-25T12:19:12;63969.63;;;19.04;100.00
6899;BME280;3488;42.616;23.350;2023-05-25T12:21:40;64006.69;;;19.42;100.00
6899;BME280;3488;42.616;23.350;2023-05-25T12:24:07;64045.28;;;19.80;100.00
6899;BME280;3488;42.616;23.350;2023-05-25T12:26:46;64085.47;;;20.18;97.66
6899;BME280;3488;42.616;23.350;2023-05-25T12:29:14;64035.88;;;19.68;93.72
6899;BME280;3488;42.616;23.350;2023-05-25T12:31:41;64029.09;;;19.62;97.21
6899;BME280;3488;42.616;23.350;2023-05-25T12:34:09;64069.25;;;20.00;95.07
6899;BME280;3488;42.616;23.350;2023-05-25T12:36:43;64059.34;;;19.91;92.72
6899;BME280;3488;42.616;23.350;2023-05-25T12:39:12;64107.34;;;20.37;90.92
6899;BME280;3488;42.616;23.350;2023-05-25T12:41:46;64140.25;;;20.71;88.64
6899;BME280;3488;42.616;23.350;2023-05-25T12:44:22;64149.13;;;20.80;81.75
6899;BME280;3488;42.616;23.350;2023-05-25T12:46:50;64096.91;;;20.27;89.29
6899;BME280;3488;42.616;23.350;2023-05-25T12:49:28;64156.41;;;20.82;87.27
6899;BME280;3488;42.616;23.350;2023-05-25T12:51:59;64183.06;;;21.10;84.39
6899;BME280;3488;42.616;23.350;2023-05-25T12:54:38;64154.84;;;20.83;83.70
6899;BME280;3488;42.616;23.350;2023-05-25T12:57:09;64143.41;;;20.74;84.44
6899;BME280;3488;42.616;23.350;2023-05-25T12:59:37;64124.63;;;20.58;82.66
6899;BME280;3488;42.616;23.350;2023-05-25T13:02:05;64150.19;;;20.81;88.30
6899;BME280;3488;42.616;23.350;2023-05-25T13:04:34;64221.69;;;21.47;81.07
6899;BME280;3488;42.616;23.350;2023-05-25T13:07:02;64240.50;;;21.65;75.28
6899;BME280;3488;42.616;23.350;2023-05-25T13:09:30;64244.69;;;21.69;78.33
6899;BME280;3488;42.616;23.350;2023-05-25T13:11:57;64236.88;;;21.64;60.68
6899;BME280;3488;42.616;23.350;2023-05-25T13:14:25;64212.81;;;21.38;58.56